Time;durP1;ratioP1;P1;durP2;ratioP2;P2;SDS_P1;SDS_P2;PMS_P1;PMS_P2;Temp;Humidity;BMP_temperature;BMP_pressure;BME280_temperature;BME280_humidity;BME280_pressure;Samples;Min_cycle;Max_cycle;Signal;HPM_P1;HPM_P2
2021/06/12 00:01:31;;;;;;;7.72;3.40;;;;;;;18.45;63.65;100240.38;1839240;77;22582;-67
2021/06/12 00:04:04;;;;;;;7.50;3.45;;;;;;;18.45;63.62;100234.60;1833711;77;22140;-64
2021/06/12 00:06:37;;;;;;;6.60;3.30;;;;;;;18.47;63.56;100230.52;1822653;77;22610;-64
2021/06/12 00:09:11;;;;;;;5.10;3.10;;;;;;;18.45;63.55;100220.40;1811324;77;22155;-64
2021/06/12 00:11:44;;;;;;;7.72;3.75;;;;;;;18.41;63.57;100224.54;1807391;77;22618;-67
2021/06/12 00:14:17;;;;;;;5.42;3.02;;;;;;;18.41;63.52;100219.21;1848140;77;22175;-64
2021/06/12 00:17:04;;;;;;;5.50;3.50;;;;;;;18.33;63.44;100224.03;1724541;83;21574;-65
2021/06/12 00:19:37;;;;;;;5.08;3.15;;;;;;;18.36;63.47;100220.37;1824335;77;22171;-67
2021/06/12 00:22:10;;;;;;;5.35;3.35;;;;;;;18.33;63.46;100216.05;1816777;77;22203;-64
2021/06/12 00:24:56;;;;;;;6.17;3.20;;;;;;;18.30;63.53;100218.88;1769632;80;21169;-69
2021/06/12 00:27:29;;;;;;;6.50;3.42;;;;;;;18.34;63.64;100220.44;1833591;77;22152;-68
2021/06/12 00:30:04;;;;;;;5.70;2.92;;;;;;;18.35;63.78;100214.66;1818589;77;22660;-68
2021/06/12 00:32:37;;;;;;;5.60;3.33;;;;;;;18.33;63.82;100214.71;1831392;77;22197;-64
2021/06/12 00:35:12;;;;;;;7.42;3.47;;;;;;;18.36;63.94;100220.37;1821967;77;22173;-64
2021/06/12 00:37:45;;;;;;;8.10;3.37;;;;;;;18.36;63.91;100220.37;1834462;77;22183;-65
2021/06/12 00:40:19;;;;;;;7.20;3.22;;;;;;;18.37;64.12;100216.30;1815029;77;22594;-64
2021/06/12 00:43:05;;;;;;;6.03;3.22;;;;;;;18.37;64.12;100226.95;1747201;81;21111;-69
2021/06/12 00:45:45;;;;;;;4.03;3.08;;;;;;;18.41;64.04;100225.02;1820011;77;22627;-65
2021/06/12 00:48:14;;;;;;;6.20;3.30;;;;;;;18.40;63.94;100224.14;1831976;77;22179;-68
2021/06/12 00:50:59;;;;;;;3.95;2.58;;;;;;;18.36;64.07;100225.70;1736936;81;21156;-69
2021/06/12 00:53:42;;;;;;;4.90;3.05;;;;;;;18.40;64.13;100221.48;1812336;77;22193;-69
2021/06/12 00:56:17;;;;;;;3.62;2.80;;;;;;;18.42;64.19;100218.27;1804493;77;22226;-65
2021/06/12 00:59:03;;;;;;;5.85;3.10;;;;;;;18.39;64.13;100227.75;1761068;80;21689;-71
2021/06/12 01:01:36;;;;;;;6.08;3.37;;;;;;;18.45;64.16;100226.61;1822587;77;22179;-69
2021/06/12 01:04:09;;;;;;;5.65;3.17;;;;;;;18.47;64.16;100225.19;1824700;77;22579;-64
2021/06/12 01:06:55;;;;;;;5.53;3.00;;;;;;;18.42;64.14;100226.27;1758242;81;21166;-65
2021/06/12 01:09:28;;;;;;;3.83;2.83;;;;;;;18.46;64.00;100218.12;1831413;77;22222;-64
2021/06/12 01:12:22;;;;;;;4.85;3.35;;;;;;;18.48;63.80;100225.59;1819571;77;22594;-69
2021/06/12 01:15:09;;;;;;;6.47;3.05;;;;;;;18.45;63.62;100231.94;1820033;77;22198;-69
2021/06/12 01:18:01;;;;;;;8.48;3.40;;;;;;;18.40;63.54;100231.29;1759188;80;21248;-70
2021/06/12 01:21:11;;;;;;;7.00;3.45;;;;;;;18.38;63.50;100223.35;1808671;77;22214;-63
2021/06/12 01:24:22;;;;;;;4.80;3.25;;;;;;;18.32;63.51;100218.80;1819194;77;22182;-69
2021/06/12 01:27:25;;;;;;;5.17;3.20;;;;;;;18.28;63.56;100220.75;1852818;77;22183;-63
2021/06/12 01:30:22;;;;;;;6.55;3.85;;;;;;;18.24;63.71;100221.83;1797625;77;22217;-69
2021/06/12 01:33:05;;;;;;;7.20;3.75;;;;;;;18.22;63.74;100219.70;1852055;77;22115;-63
2021/06/12 01:35:54;;;;;;;5.17;3.98;;;;;;;18.20;63.84;100221.09;1754163;81;21215;-64
2021/06/12 01:38:32;;;;;;;8.90;5.20;;;;;;;18.26;63.66;100214.63;1802956;77;28144;-68
2021/06/12 01:41:07;;;;;;;6.17;3.70;;;;;;;18.27;63.54;100216.36;1799739;77;22222;-68
2021/06/12 01:43:52;;;;;;;4.78;4.00;;;;;;;18.25;63.48;100220.89;1734342;81;21646;-68
2021/06/12 01:46:25;;;;;;;6.47;4.37;;;;;;;18.26;63.47;100212.81;1814935;77;22189;-64
2021/06/12 01:48:59;;;;;;;5.65;4.45;;;;;;;18.23;63.56;100218.28;1818291;77;22147;-68
2021/06/12 01:51:32;;;;;;;7.33;4.97;;;;;;;18.18;63.73;100220.30;1829897;77;22151;-63
2021/06/12 01:54:18;;;;;;;6.53;5.17;;;;;;;18.12;63.87;100224.13;1790229;80;21177;-70
2021/06/12 01:56:51;;;;;;;8.05;5.30;;;;;;;18.15;64.08;100224.91;1818637;77;22181;-69
2021/06/12 01:59:24;;;;;;;6.87;5.37;;;;;;;18.13;64.28;100224.52;1822070;77;22241;-69
2021/06/12 02:02:01;;;;;;;8.40;5.58;;;;;;;18.11;64.43;100225.05;1836516;77;22142;-70
2021/06/12 02:04:47;;;;;;;7.62;5.67;;;;;;;18.09;64.54;100228.73;1732989;81;21211;-71
2021/06/12 02:07:21;;;;;;;6.45;5.17;;;;;;;18.14;64.58;100226.70;1816738;77;22206;-69
2021/06/12 02:09:55;;;;;;;6.30;5.17;;;;;;;18.15;64.65;100227.58;1809521;77;22181;-63
2021/06/12 02:12:28;;;;;;;6.15;5.35;;;;;;;18.14;64.73;100222.70;1834423;77;22175;-70
2021/06/12 02:15:04;;;;;;;10.00;4.92;;;;;;;18.16;64.75;100227.49;1806373;77;22233;-62
2021/06/12 02:17:50;;;;;;;8.20;5.95;;;;;;;18.15;64.83;100232.91;1757675;81;21732;-71
2021/06/12 02:20:23;;;;;;;8.20;5.50;;;;;;;18.19;64.93;100227.84;1814254;77;22206;-62
2021/06/12 02:22:56;;;;;;;7.25;5.22;;;;;;;18.21;64.73;100221.97;1835476;77;22171;-62
2021/06/12 02:25:29;;;;;;;7.58;4.62;;;;;;;18.25;64.77;100224.41;1814791;77;22167;-62
2021/06/12 02:28:15;;;;;;;5.92;4.37;;;;;;;18.23;64.82;100228.94;1741094;80;21586;-70
2021/06/12 02:31:05;;;;;;;7.22;4.67;;;;;;;18.28;64.87;100218.94;1802811;77;22233;-63
2021/06/12 02:33:38;;;;;;;7.45;4.87;;;;;;;18.30;64.93;100225.54;1852689;77;22171;-69
2021/06/12 02:36:11;;;;;;;7.12;5.05;;;;;;;18.33;65.04;100229.84;1826497;77;22167;-62
2021/06/12 02:38:44;;;;;;;7.00;4.37;;;;;;;18.34;65.15;100239.56;1834405;77;22175;-63
2021/06/12 02:41:30;;;;;;;5.70;4.25;;;;;;;18.33;65.19;100245.83;1750909;81;21146;-64
2021/06/12 02:44:04;;;;;;;6.28;4.62;;;;;;;18.36;65.30;100246.53;1824335;77;22586;-68
2021/06/12 02:46:40;;;;;;;9.35;4.87;;;;;;;18.36;65.41;100235.88;1820974;77;22173;-64
2021/06/12 02:49:31;;;;;;;8.00;4.80;;;;;;;18.34;65.56;100239.56;1779612;80;21167;-64
2021/06/12 02:52:08;;;;;;;6.53;4.85;;;;;;;18.40;65.66;100245.95;1834466;77;22603;-68
2021/06/12 02:54:43;;;;;;;7.53;4.97;;;;;;;18.46;65.73;100244.78;1821496;77;22189;-68
2021/06/12 02:57:17;;;;;;;8.75;5.05;;;;;;;18.51;65.76;100242.77;1852828;77;22167;-63
2021/06/12 02:59:50;;;;;;;9.08;5.15;;;;;;;18.57;65.77;100242.47;1810363;77;22239;-63
2021/06/12 03:02:23;;;;;;;5.85;4.75;;;;;;;18.63;65.82;100242.19;1841582;77;22185;-66
2021/06/12 03:04:56;;;;;;;7.28;5.22;;;;;;;18.67;65.88;100241.10;1796091;77;22241;-67
2021/06/12 03:07:52;;;;;;;10.45;5.70;;;;;;;18.76;65.96;100250.44;1838056;77;22215;-64
2021/06/12 03:10:36;;;;;;;5.87;4.83;;;;;;;18.81;65.97;100253.75;1813182;77;22206;-63
2021/06/12 03:13:13;;;;;;;6.42;5.70;;;;;;;18.86;66.01;100246.39;1823675;77;22190;-63
2021/06/12 03:15:46;;;;;;;7.80;5.50;;;;;;;18.93;66.10;100252.28;1810926;77;22206;-64
2021/06/12 03:18:32;;;;;;;8.33;5.12;;;;;;;18.96;66.15;100255.31;1762211;81;21662;-69
2021/06/12 03:21:05;;;;;;;6.97;5.08;;;;;;;19.06;66.25;100262.38;1822908;77;22197;-63
2021/06/12 03:23:38;;;;;;;6.47;5.35;;;;;;;19.10;66.28;100262.14;1827232;77;22170;-67
2021/06/12 03:26:11;;;;;;;8.63;5.65;;;;;;;19.11;66.31;100257.20;1801662;77;22692;-67
2021/06/12 03:28:44;;;;;;;7.85;6.30;;;;;;;19.16;66.40;100257.84;1834411;77;22204;-66
2021/06/12 03:31:18;;;;;;;8.75;5.30;;;;;;;19.24;66.39;100257.44;1794985;77;22629;-68
2021/06/12 03:34:04;;;;;;;9.08;5.95;;;;;;;19.27;66.50;100265.30;1716818;81;21744;-69
2021/06/12 03:36:37;;;;;;;7.85;5.45;;;;;;;19.40;66.58;100268.68;1821554;77;22492;-68
2021/06/12 03:39:10;;;;;;;9.48;5.70;;;;;;;19.39;66.91;100269.62;1832638;77;22179;-69
2021/06/12 03:41:44;;;;;;;8.13;6.28;;;;;;;19.44;67.15;100271.10;1819833;77;22189;-67
2021/06/12 03:44:17;;;;;;;7.45;5.67;;;;;;;19.53;67.35;100272.91;1841715;77;22164;-67
2021/06/12 03:47:05;;;;;;;10.05;6.17;;;;;;;19.59;67.43;100277.94;1757553;80;21592;-65
2021/06/12 03:49:38;;;;;;;11.55;8.15;;;;;;;19.75;67.49;100272.20;1803135;77;28470;-65
2021/06/12 03:52:11;;;;;;;8.90;6.92;;;;;;;19.89;67.57;100277.30;1824697;77;22179;-65
2021/06/12 03:54:44;;;;;;;8.88;6.72;;;;;;;20.05;67.65;100276.88;1816947;77;22159;-68
2021/06/12 03:57:19;;;;;;;7.65;6.85;;;;;;;20.14;67.59;100278.19;1821449;77;22170;-67
2021/06/12 04:00:09;;;;;;;12.33;6.45;;;;;;;20.18;67.60;100285.09;1732216;81;21452;-67
2021/06/12 04:02:42;;;;;;;7.22;6.00;;;;;;;20.38;67.51;100284.49;1820356;77;22169;-70
2021/06/12 04:05:15;;;;;;;11.45;6.78;;;;;;;20.48;67.38;100281.70;1819537;77;22197;-67
2021/06/12 04:07:48;;;;;;;9.20;7.17;;;;;;;20.57;67.32;100287.01;1821718;77;22179;-68
2021/06/12 04:10:21;;;;;;;11.00;6.53;;;;;;;20.65;67.31;100282.56;1802943;77;22229;-66
2021/06/12 04:13:07;;;;;;;8.80;6.62;;;;;;;20.71;67.32;100286.72;1760269;81;21268;-67
2021/06/12 04:15:40;;;;;;;7.87;6.85;;;;;;;20.85;67.14;100287.30;1793034;77;22650;-66
2021/06/12 04:18:15;;;;;;;9.43;7.03;;;;;;;20.95;67.25;100292.52;1802521;77;22192;-66
2021/06/12 04:21:01;;;;;;;10.28;7.05;;;;;;;20.97;67.27;100295.97;1756905;81;21126;-69
2021/06/12 04:23:34;;;;;;;8.28;6.50;;;;;;;21.17;67.20;100300.63;1817821;77;22190;-69
2021/06/12 04:26:07;;;;;;;10.68;7.00;;;;;;;21.25;67.11;100293.88;1789568;77;22673;-64
2021/06/12 04:28:54;;;;;;;10.88;7.47;;;;;;;21.34;66.86;100303.66;1758773;81;21110;-71
2021/06/12 04:31:27;;;;;;;8.75;6.22;;;;;;;21.48;66.83;100295.68;1900031;74;22163;-64
2021/06/12 04:34:06;;;;;;;9.35;6.55;;;;;;;21.59;66.65;100300.39;1812363;77;22171;-64
2021/06/12 04:36:39;;;;;;;7.37;6.22;;;;;;;21.70;66.64;100302.45;1811394;77;22177;-64
2021/06/12 04:39:12;;;;;;;7.92;5.87;;;;;;;21.86;66.61;100302.86;1816357;77;22643;-64
2021/06/12 04:41:58;;;;;;;9.43;6.42;;;;;;;21.94;66.58;100302.77;1747914;81;21280;-81
2021/06/12 04:44:31;;;;;;;9.70;6.28;;;;;;;22.18;66.57;100302.69;1810414;77;22613;-71
2021/06/12 04:47:04;;;;;;;12.68;6.60;;;;;;;22.32;66.31;100293.31;1820402;77;22191;-69
2021/06/12 04:49:52;;;;;;;9.08;5.72;;;;;;;22.43;65.89;100298.90;1770288;80;21122;-72
2021/06/12 04:52:25;;;;;;;7.78;6.03;;;;;;;22.63;65.67;100295.41;1820100;77;22587;-69
2021/06/12 04:55:07;;;;;;;9.38;6.08;;;;;;;22.78;65.46;100301.59;1803789;77;22213;-64
2021/06/12 04:57:40;;;;;;;7.42;5.85;;;;;;;22.93;65.48;100290.83;1825823;77;20222;-68
2021/06/12 05:00:26;;;;;;;6.55;5.47;;;;;;;23.07;65.32;100293.94;1791510;78;21706;-65
2021/06/12 05:02:59;;;;;;;6.85;5.25;;;;;;;23.29;64.53;100287.56;1823898;77;22155;-65
2021/06/12 05:05:32;;;;;;;12.60;5.85;;;;;;;23.41;63.56;100291.70;1817813;77;22143;-65
2021/06/12 05:08:06;;;;;;;8.25;5.83;;;;;;;23.50;63.12;100291.08;1819340;77;22179;-64
2021/06/12 05:10:39;;;;;;;8.23;5.80;;;;;;;23.61;62.89;100292.56;1814309;77;22143;-64
2021/06/12 05:13:12;;;;;;;9.10;6.17;;;;;;;23.73;62.18;100293.53;1809567;77;22637;-68
2021/06/12 05:15:46;;;;;;;9.28;6.42;;;;;;;23.90;62.03;100301.77;1810011;77;22213;-64
2021/06/12 05:18:21;;;;;;;10.43;6.45;;;;;;;24.11;61.76;100303.08;1814885;77;22194;-68
2021/06/12 05:20:54;;;;;;;9.53;5.97;;;;;;;24.27;60.68;100303.72;1800200;77;22213;-68
2021/06/12 05:23:39;;;;;;;9.45;6.35;;;;;;;24.43;60.92;100305.33;1767451;81;21534;-68
2021/06/12 05:26:14;;;;;;;8.73;6.20;;;;;;;24.71;60.53;100300.63;1804968;77;22206;-67
2021/06/12 05:28:47;;;;;;;10.38;6.45;;;;;;;24.92;59.95;100304.94;1821001;77;22655;-68
2021/06/12 05:31:33;;;;;;;11.35;6.28;;;;;;;25.06;59.15;100301.21;1755110;81;21585;-68
2021/06/12 05:34:06;;;;;;;9.48;5.78;;;;;;;25.29;58.83;100302.68;1855685;77;22166;-69
2021/06/12 05:36:39;;;;;;;10.72;6.25;;;;;;;25.43;58.44;100302.47;1826435;77;22211;-65
2021/06/12 05:39:12;;;;;;;11.38;6.37;;;;;;;25.60;57.26;100302.58;1805166;77;22193;-70
2021/06/12 05:41:58;;;;;;;19.92;9.45;;;;;;;25.75;56.25;100301.87;1745239;81;21253;-70
2021/06/12 05:44:31;;;;;;;18.48;9.95;;;;;;;25.92;55.27;100300.55;1800916;77;22233;-64
2021/06/12 05:47:05;;;;;;;17.50;9.43;;;;;;;26.01;53.73;100301.66;1815035;77;22191;-64
2021/06/12 05:49:38;;;;;;;20.50;9.55;;;;;;;26.16;53.87;100298.27;1807305;77;22211;-64
2021/06/12 05:52:11;;;;;;;17.65;10.40;;;;;;;26.31;53.88;100303.42;1800744;77;22170;-64
2021/06/12 05:54:44;;;;;;;20.45;10.13;;;;;;;26.41;53.47;100299.86;1813757;77;22668;-70
2021/06/12 05:57:17;;;;;;;21.50;10.03;;;;;;;26.52;52.50;100304.38;1826507;77;22159;-70
2021/06/12 06:00:05;;;;;;;24.37;10.90;;;;;;;26.62;52.30;100311.73;1770503;80;21269;-66
2021/06/12 06:02:39;;;;;;;19.35;10.05;;;;;;;26.81;51.80;100300.28;1822270;77;22198;-64
2021/06/12 06:05:13;;;;;;;19.75;9.68;;;;;;;26.92;51.92;100296.75;1804983;77;22665;-65
2021/06/12 06:07:46;;;;;;;20.57;10.93;;;;;;;27.11;51.57;100302.83;1810953;77;22205;-64
2021/06/12 06:10:39;;;;;;;17.27;9.10;;;;;;;27.33;50.58;100305.06;1800309;77;22682;-72
2021/06/12 06:13:25;;;;;;;17.52;9.30;;;;;;;27.43;50.37;100306.00;1777190;80;21111;-72
2021/06/12 06:15:58;;;;;;;15.28;9.80;;;;;;;27.56;49.60;100307.19;1817817;77;22200;-69
2021/06/12 06:18:31;;;;;;;23.02;10.08;;;;;;;27.64;48.02;100297.06;1809833;77;22174;-74
2021/06/12 06:21:05;;;;;;;14.85;8.28;;;;;;;27.74;48.33;100301.56;1806927;77;22210;-73
2021/06/12 06:23:38;;;;;;;15.43;8.85;;;;;;;27.86;47.84;100291.52;1833873;77;22180;-64
2021/06/12 06:26:12;;;;;;;14.45;8.13;;;;;;;27.99;47.98;100292.66;1794281;77;22240;-64
2021/06/12 06:28:46;;;;;;;13.53;7.37;;;;;;;28.21;47.82;100288.11;1822916;77;22147;-65
2021/06/12 06:31:19;;;;;;;12.00;7.70;;;;;;;28.38;47.17;100287.08;1821305;77;22206;-70
2021/06/12 06:33:53;;;;;;;16.23;8.30;;;;;;;28.50;46.55;100284.63;1833080;77;22603;-73
2021/06/12 06:36:26;;;;;;;20.68;7.67;;;;;;;28.69;46.16;100290.59;1819578;77;22197;-65
2021/06/12 06:39:00;;;;;;;12.88;7.05;;;;;;;28.83;45.96;100288.02;1820373;77;22166;-64
2021/06/12 06:41:33;;;;;;;14.80;6.67;;;;;;;28.91;45.54;100285.98;1852837;77;22195;-65
2021/06/12 06:44:07;;;;;;;14.20;7.60;;;;;;;28.97;44.69;100295.38;1819296;77;22174;-66
2021/06/12 06:46:41;;;;;;;15.18;6.60;;;;;;;29.01;44.89;100294.94;1830599;77;22120;-65
2021/06/12 06:49:27;;;;;;;11.75;6.25;;;;;;;29.04;44.33;100299.24;1790325;80;21582;-73
2021/06/12 06:52:02;;;;;;;11.10;5.67;;;;;;;29.15;44.52;100290.95;1824514;77;22163;-65
2021/06/12 06:54:35;;;;;;;12.50;6.20;;;;;;;29.32;44.43;100292.13;1845175;77;22613;-66
2021/06/12 06:57:21;;;;;;;10.55;5.60;;;;;;;29.42;43.58;100294.85;1761868;81;21158;-66
2021/06/12 06:59:55;;;;;;;11.43;5.45;;;;;;;29.64;43.87;100292.80;1822584;77;22174;-66
2021/06/12 07:02:48;;;;;;;8.15;4.87;;;;;;;29.80;43.54;100289.00;1818034;77;22215;-67
2021/06/12 07:05:22;;;;;;;9.23;4.65;;;;;;;29.94;43.40;100284.96;1809816;77;22211;-71
2021/06/12 07:08:08;;;;;;;9.05;5.08;;;;;;;30.00;42.83;100290.83;1774703;80;21087;-71
2021/06/12 07:10:42;;;;;;;10.20;5.35;;;;;;;30.14;43.06;100282.22;1811854;77;22174;-70
2021/06/12 07:13:20;;;;;;;11.20;5.28;;;;;;;30.33;41.96;100285.34;1843559;77;22214;-68
2021/06/12 07:15:53;;;;;;;7.95;4.70;;;;;;;30.51;42.73;100285.39;1809074;77;22234;-66
2021/06/12 07:18:27;;;;;;;7.90;4.22;;;;;;;30.70;41.55;100287.66;1834271;77;22172;-71
2021/06/12 07:21:00;;;;;;;7.22;4.20;;;;;;;30.77;41.07;100288.77;1807621;77;22234;-71
2021/06/12 07:23:34;;;;;;;10.98;5.00;;;;;;;30.79;40.59;100287.27;1833496;77;22172;-70
2021/06/12 07:26:07;;;;;;;8.75;4.65;;;;;;;30.81;41.10;100287.97;1799507;77;22227;-73
2021/06/12 07:28:41;;;;;;;7.62;4.35;;;;;;;31.00;40.14;100285.09;1834325;77;22152;-71
2021/06/12 07:31:27;;;;;;;15.45;4.22;;;;;;;31.00;40.14;100285.09;1759873;81;21118;-71
2021/06/12 07:34:01;;;;;;;8.03;3.67;;;;;;;31.21;40.36;100285.33;1852757;77;22163;-71
2021/06/12 07:36:36;;;;;;;7.03;3.80;;;;;;;31.36;40.01;100279.31;1834311;77;22167;-71
2021/06/12 07:39:09;;;;;;;5.35;3.52;;;;;;;31.50;39.48;100282.84;1851149;77;22163;-72
2021/06/12 07:41:43;;;;;;;7.00;3.50;;;;;;;31.55;39.61;100285.10;1830683;77;22220;-72
2021/06/12 07:44:16;;;;;;;4.65;2.98;;;;;;;31.72;40.32;100286.07;1831203;77;22579;-70
2021/06/12 07:47:09;;;;;;;7.92;3.02;;;;;;;31.92;38.98;100280.42;1834994;77;22276;-71
2021/06/12 07:49:43;;;;;;;4.90;3.02;;;;;;;32.00;39.09;100281.34;1830194;77;22218;-72
2021/06/12 07:52:16;;;;;;;5.80;3.75;;;;;;;32.15;38.60;100283.44;1852736;77;22151;-73
2021/06/12 07:54:50;;;;;;;5.58;2.75;;;;;;;32.28;37.91;100281.63;1841753;77;22629;-70
2021/06/12 07:57:23;;;;;;;4.30;2.90;;;;;;;32.29;37.61;100285.59;1834362;77;22579;-72
2021/06/12 07:59:57;;;;;;;27.67;5.10;;;;;;;32.28;37.82;100285.70;1807994;77;22193;-74
2021/06/12 08:02:50;;;;;;;4.75;2.90;;;;;;;32.38;36.77;100287.83;1831201;77;22257;-72
2021/06/12 08:05:24;;;;;;;4.80;2.80;;;;;;;32.38;36.33;100288.36;1837907;77;22143;-71
2021/06/12 08:07:58;;;;;;;3.33;2.37;;;;;;;32.45;35.50;100282.60;1825130;77;22673;-72
2021/06/12 08:10:32;;;;;;;6.50;3.02;;;;;;;32.58;36.17;100280.77;1800627;77;22182;-73
2021/06/12 08:13:05;;;;;;;3.72;2.42;;;;;;;32.77;36.05;100279.62;1834338;77;22156;-71
2021/06/12 08:15:40;;;;;;;3.55;2.58;;;;;;;32.99;34.71;100282.25;1808793;77;22198;-74
2021/06/12 08:18:13;;;;;;;4.25;2.87;;;;;;;33.16;33.94;100275.43;1808954;77;22166;-73
2021/06/12 08:20:59;;;;;;;4.78;2.83;;;;;;;33.33;34.43;100279.88;1730837;81;21365;-74
2021/06/12 08:23:33;;;;;;;4.17;2.72;;;;;;;33.47;34.14;100277.00;1845310;77;22189;-65
2021/06/12 08:26:07;;;;;;;5.33;3.10;;;;;;;33.48;34.07;100279.23;1803777;77;22633;-65
2021/06/12 08:28:42;;;;;;;4.45;2.22;;;;;;;33.54;34.01;100278.55;1851937;77;22206;-65
2021/06/12 08:31:31;;;;;;;3.60;2.67;;;;;;;33.50;33.99;100274.45;1728135;83;21332;-66
2021/06/12 08:34:05;;;;;;;9.05;3.70;;;;;;;33.63;34.28;100275.28;1795687;77;28489;-67
2021/06/12 08:36:40;;;;;;;6.60;2.80;;;;;;;33.64;33.58;100279.19;1809298;77;22493;-67
2021/06/12 08:39:17;;;;;;;6.33;2.98;;;;;;;33.47;33.69;100282.98;1849008;77;22618;-67
2021/06/12 08:41:51;;;;;;;6.40;3.02;;;;;;;33.54;33.99;100277.67;1826807;77;22146;-67
2021/06/12 08:44:25;;;;;;;4.10;2.42;;;;;;;33.64;34.28;100276.46;1821386;77;22246;-66
2021/06/12 08:47:11;;;;;;;5.12;2.75;;;;;;;33.67;33.93;100286.20;1759873;81;21123;-68
2021/06/12 08:49:45;;;;;;;4.37;3.08;;;;;;;33.79;33.79;100279.33;1842972;77;22209;-68
2021/06/12 08:52:19;;;;;;;3.42;2.65;;;;;;;34.04;33.38;100277.08;1821369;77;22676;-68
2021/06/12 08:54:52;;;;;;;4.37;2.75;;;;;;;34.24;31.58;100266.09;1819972;77;22221;-67
2021/06/12 08:57:26;;;;;;;9.83;3.15;;;;;;;34.57;32.25;100264.25;1805728;77;22198;-68
2021/06/12 08:59:59;;;;;;;3.50;2.55;;;;;;;34.77;32.23;100267.37;1817497;77;22208;-68
2021/06/12 09:03:10;;;;;;;4.37;2.77;;;;;;;34.60;31.01;100262.03;1839173;77;22173;-67
2021/06/12 09:05:55;;;;;;;3.95;2.58;;;;;;;34.52;32.36;100262.08;1805236;77;22617;-68
2021/06/12 09:08:41;;;;;;;3.95;2.12;;;;;;;34.63;32.25;100265.77;1762569;80;21165;-69
2021/06/12 09:11:18;;;;;;;3.58;2.65;;;;;;;34.88;31.45;100260.14;1821834;77;22186;-68
2021/06/12 09:14:02;;;;;;;4.62;2.83;;;;;;;35.12;31.37;100256.90;1834424;77;22148;-68
2021/06/12 09:16:40;;;;;;;7.17;2.40;;;;;;;35.34;31.43;100257.07;1850776;77;22120;-68
2021/06/12 09:19:21;;;;;;;5.35;2.37;;;;;;;35.16;30.37;100255.50;1817764;77;22210;-68
2021/06/12 09:22:09;;;;;;;3.37;2.15;;;;;;;34.97;30.20;100263.69;1761685;81;21574;-69
2021/06/12 09:24:49;;;;;;;6.42;2.95;;;;;;;34.77;29.68;100256.45;1803653;77;28094;-69
2021/06/12 09:27:18;;;;;;;3.08;2.25;;;;;;;34.57;29.92;100250.59;1829419;77;22172;-68
2021/06/12 09:30:08;;;;;;;6.53;2.30;;;;;;;34.50;30.29;100260.87;1763043;80;21323;-69
2021/06/12 09:32:45;;;;;;;5.35;2.65;;;;;;;34.70;30.19;100253.06;1834468;77;22179;-68
2021/06/12 09:35:19;;;;;;;3.80;2.10;;;;;;;34.74;30.30;100250.84;1809440;77;23318;-69
2021/06/12 09:37:52;;;;;;;2.70;2.35;;;;;;;34.79;30.45;100251.16;1814253;77;22162;-69
2021/06/12 09:40:31;;;;;;;3.83;2.08;;;;;;;34.72;30.35;100247.44;1815551;77;22234;-69
2021/06/12 09:43:31;;;;;;;3.45;2.50;;;;;;;34.72;30.86;100246.57;1761859;80;21222;-71
2021/06/12 09:46:05;;;;;;;3.22;2.60;;;;;;;34.59;30.26;100244.44;1800030;77;22253;-70
2021/06/12 09:48:38;;;;;;;3.15;2.25;;;;;;;34.35;30.69;100244.89;1810553;77;22202;-70
2021/06/12 09:51:18;;;;;;;4.45;2.40;;;;;;;34.46;31.47;100239.56;1802961;77;22557;-69
2021/06/12 09:54:06;;;;;;;3.65;2.50;;;;;;;34.63;31.76;100238.45;1761512;81;21277;-71
2021/06/12 09:56:39;;;;;;;5.85;2.37;;;;;;;34.58;30.74;100231.80;1810342;77;22216;-70
2021/06/12 09:59:19;;;;;;;5.42;2.25;;;;;;;34.61;30.27;100240.51;1850294;77;22625;-71
2021/06/12 10:02:05;;;;;;;4.62;2.50;;;;;;;34.63;29.72;100245.28;1782699;80;21261;-69
2021/06/12 10:04:56;;;;;;;3.72;2.50;;;;;;;34.78;30.19;100243.98;1817173;77;22630;-70
2021/06/12 10:07:30;;;;;;;3.30;2.10;;;;;;;34.79;30.66;100234.75;1834477;77;22156;-71
2021/06/12 10:10:09;;;;;;;4.05;2.65;;;;;;;34.94;30.83;100239.41;1820636;77;22202;-70
2021/06/12 10:12:56;;;;;;;3.30;2.25;;;;;;;34.98;31.17;100239.41;1759124;81;21241;-69
2021/06/12 10:15:29;;;;;;;3.58;2.25;;;;;;;35.39;31.31;100233.58;1797938;77;22212;-68
2021/06/12 10:18:03;;;;;;;3.85;2.30;;;;;;;36.13;31.18;100233.87;1834190;77;22615;-68
2021/06/12 10:20:36;;;;;;;6.10;2.35;;;;;;;36.65;29.07;100221.02;1813322;77;22214;-69
2021/06/12 10:23:10;;;;;;;4.47;2.50;;;;;;;36.94;27.91;100227.94;1823469;77;22120;-69
2021/06/12 10:25:43;;;;;;;4.58;2.45;;;;;;;37.05;27.91;100228.28;1811608;77;22194;-69
2021/06/12 10:38:57;;;;;;;4.33;2.75;;;;;;;36.74;26.84;100213.50;1834389;77;25292;-68
2021/06/12 10:41:37;;;;;;;3.37;2.33;;;;;;;36.73;26.44;100215.92;1820571;77;22170;-69
2021/06/12 10:52:44;;;;;;;3.37;2.20;;;;;;;36.82;27.59;100196.93;1834556;77;22176;-70
2021/06/12 10:55:39;;;;;;;3.92;2.40;;;;;;;37.18;25.48;100189.14;1817539;77;22178;-69
2021/06/12 10:58:37;;;;;;;4.08;2.17;;;;;;;37.14;26.19;100191.12;1849182;77;22163;-69
2021/06/12 11:08:32;;;;;;;4.08;2.25;;;;;;;36.66;25.83;100190.33;1824994;77;22586;-68
2021/06/12 11:11:31;;;;;;;4.40;2.17;;;;;;;36.85;27.84;100183.37;1806713;77;22571;-69
2021/06/12 11:14:26;;;;;;;4.72;2.12;;;;;;;37.16;27.63;100179.42;1831984;77;22179;-70
2021/06/12 11:17:11;;;;;;;5.08;2.33;;;;;;;37.39;26.49;100183.28;1830718;77;22567;-70
2021/06/12 11:20:02;;;;;;;5.03;2.47;;;;;;;37.13;25.43;100177.91;1787593;77;28169;-70
2021/06/12 11:22:41;;;;;;;5.50;2.30;;;;;;;37.14;26.14;100176.86;1834472;77;22184;-69
2021/06/12 11:25:20;;;;;;;4.08;2.40;;;;;;;37.21;26.42;100179.67;1833565;77;22233;-70
2021/06/12 11:28:27;;;;;;;3.52;2.27;;;;;;;36.98;25.47;100187.61;1791782;79;21250;-72
2021/06/12 11:31:24;;;;;;;3.30;2.40;;;;;;;36.54;27.89;100181.78;1807831;77;22230;-70
2021/06/12 11:34:12;;;;;;;4.35;2.40;;;;;;;36.37;27.83;100181.15;1852100;77;22193;-70
2021/06/12 11:36:48;;;;;;;3.33;2.00;;;;;;;36.32;26.62;100179.84;1824963;77;22128;-68
2021/06/12 11:39:48;;;;;;;3.55;2.25;;;;;;;36.24;26.45;100182.69;1788832;80;21307;-68
2021/06/12 11:42:21;;;;;;;4.35;2.20;;;;;;;36.21;27.17;100173.48;1834478;77;22176;-68
2021/06/12 11:44:54;;;;;;;3.40;2.15;;;;;;;36.16;27.15;100167.77;1823119;77;22209;-67
2021/06/12 11:47:33;;;;;;;3.95;2.25;;;;;;;36.39;27.83;100172.22;1816877;77;22238;-67
2021/06/12 11:50:08;;;;;;;2.98;2.37;;;;;;;36.54;26.37;100173.05;1807175;77;22246;-68
2021/06/12 11:52:45;;;;;;;4.17;2.40;;;;;;;36.65;26.45;100170.84;1819311;77;22625;-67
2021/06/12 11:55:31;;;;;;;2.92;2.50;;;;;;;36.78;26.75;100166.00;1719994;82;21729;-68
2021/06/12 11:58:04;;;;;;;3.83;2.87;;;;;;;36.96;26.88;100164.19;1817070;77;22214;-68
2021/06/12 12:00:46;;;;;;;4.10;2.12;;;;;;;36.93;26.71;100160.43;1813241;77;22181;-68
2021/06/12 12:03:19;;;;;;;3.83;2.47;;;;;;;36.96;26.63;100158.16;1815484;77;22618;-68
2021/06/12 12:06:06;;;;;;;5.17;2.70;;;;;;;36.72;25.84;100149.30;1783356;77;28479;-68
2021/06/12 12:08:52;;;;;;;3.98;2.20;;;;;;;36.46;26.26;100153.96;1763679;81;21197;-69
2021/06/12 12:11:25;;;;;;;3.10;2.40;;;;;;;36.46;26.95;100149.31;1819810;77;23624;-68
2021/06/12 12:14:05;;;;;;;4.40;2.47;;;;;;;36.37;26.79;100143.66;1820334;77;22229;-69
2021/06/12 12:16:53;;;;;;;3.42;2.30;;;;;;;36.13;26.47;100143.49;1793102;80;21194;-69
2021/06/12 12:19:26;;;;;;;3.25;2.15;;;;;;;36.04;27.38;100137.80;1828872;77;22195;-68
2021/06/12 12:22:01;;;;;;;4.67;2.45;;;;;;;35.86;27.61;100138.52;1813824;77;22171;-68
2021/06/12 12:24:34;;;;;;;4.35;2.30;;;;;;;35.67;28.07;100137.22;1844372;77;22241;-68
2021/06/12 12:27:09;;;;;;;5.17;2.22;;;;;;;35.42;29.29;100137.45;1834462;77;22164;-68
2021/06/12 12:29:42;;;;;;;6.10;2.60;;;;;;;35.16;29.86;100138.44;1824840;77;22558;-67
2021/06/12 12:32:28;;;;;;;4.40;2.35;;;;;;;34.80;29.68;100139.92;1761349;81;21622;-68
2021/06/12 12:35:13;;;;;;;2.65;2.05;;;;;;;34.57;29.55;100137.20;1821150;77;22198;-67
2021/06/12 12:37:46;;;;;;;5.80;2.70;;;;;;;34.44;30.72;100137.78;1818841;77;28620;-67
2021/06/12 12:40:22;;;;;;;5.47;2.72;;;;;;;34.24;29.87;100131.41;1807582;77;22229;-67
2021/06/12 12:43:03;;;;;;;4.67;2.70;;;;;;;34.24;31.45;100129.55;1819138;77;37957;-68